createdAt,value
2023-02-08T00:01:14.793Z,1.80
2023-02-08T00:03:42.998Z,3.05
2023-02-08T00:06:11.057Z,3.53
2023-02-08T00:08:39.007Z,3.40
2023-02-08T00:11:07.825Z,3.33
2023-02-08T00:13:35.593Z,1.77
2023-02-08T00:16:03.205Z,2.13
2023-02-08T00:18:30.419Z,1.85
2023-02-08T00:20:57.843Z,3.20
2023-02-08T00:23:25.850Z,2.92
2023-02-08T00:25:53.186Z,4.28
2023-02-08T00:28:20.984Z,3.58
2023-02-08T00:30:49.456Z,5.10
2023-02-08T00:33:16.669Z,2.88
2023-02-08T00:35:44.189Z,2.83
2023-02-08T00:38:12.572Z,2.63
2023-02-08T00:40:40.243Z,2.75
2023-02-08T00:43:07.566Z,2.70
2023-02-08T00:45:35.729Z,2.90
2023-02-08T00:48:04.962Z,2.72
2023-02-08T00:50:32.738Z,1.88
2023-02-08T00:53:00.329Z,3.45
2023-02-08T00:55:28.208Z,1.63
2023-02-08T00:57:55.990Z,2.60
2023-02-08T01:00:23.395Z,1.75
2023-02-08T01:02:50.843Z,2.08
2023-02-08T01:05:18.720Z,2.50
2023-02-08T01:07:46.231Z,2.95
2023-02-08T01:10:13.545Z,1.90
2023-02-08T01:12:41.627Z,1.30
2023-02-08T01:15:10.194Z,2.75
2023-02-08T01:17:39.811Z,2.15
2023-02-08T01:20:07.976Z,3.35
2023-02-08T01:22:36.820Z,2.00
2023-02-08T01:25:05.293Z,1.40
2023-02-08T01:27:33.034Z,2.45
2023-02-08T01:30:00.497Z,3.50
2023-02-08T01:32:28.653Z,2.08
2023-02-08T01:34:56.380Z,3.67
2023-02-08T01:37:24.107Z,2.08
2023-02-08T01:39:51.391Z,3.72
2023-02-08T01:42:20.957Z,1.70
2023-02-08T01:45:16.653Z,2.97
2023-02-08T01:47:48.836Z,1.73
2023-02-08T01:52:51.492Z,1.08
2023-02-08T01:55:30.331Z,2.05
2023-02-08T01:58:01.886Z,1.77
2023-02-08T02:00:32.049Z,2.15
2023-02-08T02:03:03.530Z,2.22
2023-02-08T02:05:42.854Z,1.65
2023-02-08T02:08:12.411Z,1.52
2023-02-08T02:10:42.772Z,1.48
2023-02-08T02:13:15.217Z,1.35
2023-02-08T02:15:46.056Z,2.60
2023-02-08T02:18:20.165Z,1.77
2023-02-08T02:21:04.079Z,3.65
2023-02-08T02:23:55.387Z,2.50
2023-02-08T02:26:38.958Z,1.83
2023-02-08T02:29:42.935Z,2.22
2023-02-08T02:32:26.703Z,1.10
2023-02-08T02:35:03.068Z,2.35
2023-02-08T02:37:42.292Z,1.35
2023-02-08T02:40:21.837Z,2.22
2023-02-08T02:43:14.440Z,2.75
2023-02-08T02:45:57.496Z,2.72
2023-02-08T02:48:55.416Z,1.75
2023-02-08T02:51:32.419Z,3.40
2023-02-08T02:54:14.624Z,1.42
2023-02-08T02:56:46.061Z,1.60
2023-02-08T02:59:15.756Z,4.07
2023-02-08T03:01:45.215Z,0.77
2023-02-08T03:04:15.194Z,3.15
2023-02-08T03:07:06.629Z,2.95
2023-02-08T03:09:49.307Z,1.73
2023-02-08T03:12:35.837Z,2.78
2023-02-08T03:15:30.204Z,1.55
2023-02-08T03:18:41.349Z,2.08
2023-02-08T03:21:42.922Z,2.55
2023-02-08T03:24:13.625Z,1.33
2023-02-08T03:26:51.471Z,1.88
2023-02-08T03:29:37.515Z,1.67
2023-02-08T03:32:12.317Z,1.63
2023-02-08T03:35:05.247Z,1.63
2023-02-08T03:37:44.752Z,1.48
2023-02-08T03:40:36.081Z,2.33
2023-02-08T03:43:37.807Z,0.82
2023-02-08T03:46:25.690Z,2.13
2023-02-08T03:48:59.848Z,4.55
2023-02-08T03:51:30.748Z,2.03
2023-02-08T03:54:01.972Z,3.50
2023-02-08T03:56:50.481Z,3.13
2023-02-08T03:59:23.761Z,2.42
2023-02-08T04:01:59.566Z,3.60
2023-02-08T04:04:31.925Z,4.72
2023-02-08T04:09:27.385Z,5.38
2023-02-08T04:11:55.416Z,1.95
2023-02-08T04:14:23.527Z,2.13
2023-02-08T04:16:51.260Z,2.35
2023-02-08T04:19:18.839Z,2.40
2023-02-08T04:21:46.560Z,2.17
2023-02-08T04:24:13.792Z,2.10
2023-02-08T04:26:41.715Z,2.63
2023-02-08T04:29:09.243Z,2.35
2023-02-08T04:31:38.508Z,1.20
2023-02-08T04:34:11.639Z,3.50
2023-02-08T04:36:39.310Z,2.03
2023-02-08T04:39:06.797Z,1.92
2023-02-08T04:41:34.350Z,1.98
2023-02-08T04:44:01.987Z,2.10
2023-02-08T04:46:29.605Z,2.60
2023-02-08T04:48:58.834Z,2.78
2023-02-08T04:51:26.667Z,1.83
2023-02-08T04:53:54.385Z,2.13
2023-02-08T04:56:21.831Z,2.15
2023-02-08T04:58:50.241Z,3.05
2023-02-08T05:01:18.005Z,3.72
2023-02-08T05:03:45.678Z,2.47
2023-02-08T05:06:14.018Z,3.65
2023-02-08T05:08:42.364Z,3.20
2023-02-08T05:11:10.079Z,2.28
2023-02-08T05:13:38.200Z,3.88
2023-02-08T05:16:06.116Z,3.55
2023-02-08T05:18:33.810Z,4.25
2023-02-08T05:21:02.275Z,3.42
2023-02-08T05:23:30.117Z,4.93
2023-02-08T05:25:58.038Z,3.53
2023-02-08T05:28:26.457Z,3.67
2023-02-08T05:30:54.330Z,3.25
2023-02-08T05:33:22.754Z,3.28
2023-02-08T05:35:50.429Z,5.13
2023-02-08T05:38:18.171Z,4.70
2023-02-08T05:40:45.892Z,2.75
2023-02-08T05:43:13.786Z,4.70
2023-02-08T05:45:41.677Z,2.58
2023-02-08T05:48:09.675Z,5.13
2023-02-08T05:50:37.585Z,3.55
2023-02-08T05:53:05.390Z,3.47
2023-02-08T05:55:33.076Z,3.30
2023-02-08T05:58:00.709Z,3.65
2023-02-08T06:00:28.176Z,2.40
2023-02-08T06:02:58.024Z,2.78
2023-02-08T06:05:25.486Z,4.28
2023-02-08T06:07:52.787Z,3.85
2023-02-08T06:10:20.007Z,3.55
2023-02-08T06:12:47.834Z,4.47
2023-02-08T06:15:16.186Z,4.80
2023-02-08T06:17:43.719Z,1.80
2023-02-08T06:20:11.682Z,3.97
2023-02-08T06:22:39.310Z,4.45
2023-02-08T06:25:07.283Z,4.47
2023-02-08T06:27:35.199Z,4.60
2023-02-08T06:30:03.348Z,4.90
2023-02-08T06:32:31.255Z,6.20
2023-02-08T06:34:59.135Z,5.07
2023-02-08T06:37:26.986Z,3.88
2023-02-08T06:39:54.174Z,6.30
2023-02-08T06:42:22.319Z,5.63
2023-02-08T06:44:55.156Z,5.68
2023-02-08T06:47:24.561Z,6.60
2023-02-08T06:49:52.993Z,4.60
2023-02-08T06:52:21.506Z,5.72
2023-02-08T06:54:49.223Z,5.18
2023-02-08T06:57:17.431Z,4.55
2023-02-08T06:59:44.988Z,5.05
2023-02-08T07:02:20.072Z,5.80
2023-02-08T07:04:48.846Z,4.05
2023-02-08T07:07:18.053Z,6.10
2023-02-08T07:09:46.148Z,5.85
2023-02-08T07:12:13.726Z,7.78
2023-02-08T07:14:44.027Z,7.18
2023-02-08T07:17:12.543Z,6.28
2023-02-08T07:19:40.826Z,6.07
2023-02-08T07:22:11.472Z,5.35
2023-02-08T07:24:40.844Z,5.88
2023-02-08T07:27:10.299Z,5.68
2023-02-08T07:29:38.056Z,6.88
2023-02-08T07:32:07.579Z,7.60
2023-02-08T07:34:37.518Z,7.03
2023-02-08T07:37:04.878Z,6.63
2023-02-08T07:39:33.337Z,8.73
2023-02-08T07:42:01.655Z,7.13
2023-02-08T07:44:35.716Z,7.78
2023-02-08T07:47:03.630Z,5.88
2023-02-08T07:49:32.154Z,7.05
2023-02-08T07:52:03.120Z,6.60
2023-02-08T07:54:33.944Z,6.40
2023-02-08T07:57:03.521Z,7.05
2023-02-08T07:59:31.599Z,6.90
2023-02-08T08:01:59.217Z,6.80
2023-02-08T08:04:26.828Z,7.03
2023-02-08T08:06:56.243Z,6.30
2023-02-08T08:09:24.595Z,7.20
2023-02-08T08:11:52.053Z,6.28
2023-02-08T08:14:20.437Z,6.68
2023-02-08T08:16:47.987Z,8.52
2023-02-08T08:19:15.684Z,9.02
2023-02-08T08:21:45.163Z,6.88
2023-02-08T08:24:12.522Z,7.60
2023-02-08T08:26:40.103Z,6.70
2023-02-08T08:29:08.326Z,6.85
2023-02-08T08:31:37.005Z,6.97
2023-02-08T08:34:04.632Z,8.95
2023-02-08T08:36:33.104Z,8.90
2023-02-08T08:39:00.682Z,5.90
2023-02-08T08:41:29.043Z,6.85
2023-02-08T08:43:56.485Z,7.70
2023-02-08T08:46:24.155Z,7.30
2023-02-08T08:48:52.293Z,11.75
2023-02-08T08:51:20.360Z,9.05
2023-02-08T08:53:48.006Z,7.65
2023-02-08T08:56:15.449Z,8.00
2023-02-08T08:58:44.087Z,10.30
2023-02-08T09:01:14.290Z,6.47
2023-02-08T09:03:41.683Z,6.85
2023-02-08T09:06:09.267Z,12.63
2023-02-08T09:08:36.758Z,19.52
2023-02-08T09:11:10.063Z,8.85
2023-02-08T09:13:38.820Z,9.75
2023-02-08T09:16:10.317Z,6.88
2023-02-08T09:18:38.040Z,5.95
2023-02-08T09:21:15.986Z,5.05
2023-02-08T09:23:44.085Z,4.97
2023-02-08T09:26:13.690Z,6.35
2023-02-08T09:28:41.771Z,5.55
2023-02-08T09:31:10.840Z,4.53
2023-02-08T09:33:39.211Z,5.35
2023-02-08T09:36:07.435Z,5.65
2023-02-08T09:38:35.164Z,5.68
2023-02-08T09:41:30.711Z,5.30
2023-02-08T09:44:30.704Z,4.68
2023-02-08T09:47:15.412Z,6.25
2023-02-08T09:50:20.238Z,5.43
2023-02-08T09:53:01.282Z,4.57
2023-02-08T09:55:52.233Z,4.70
2023-02-08T09:58:29.728Z,4.88
2023-02-08T10:00:59.040Z,5.57
2023-02-08T10:03:42.919Z,5.18
2023-02-08T10:06:14.158Z,11.63
2023-02-08T10:08:43.151Z,8.95
2023-02-08T10:11:19.397Z,6.20
2023-02-08T10:13:58.609Z,4.90
2023-02-08T10:16:50.312Z,5.53
2023-02-08T10:19:37.913Z,6.05
2023-02-08T10:22:26.770Z,5.70
2023-02-08T10:25:00.793Z,5.05
2023-02-08T10:28:08.841Z,5.32
2023-02-08T10:30:52.880Z,5.15
2023-02-08T10:33:51.779Z,4.63
2023-02-08T10:36:22.406Z,4.55
2023-02-08T10:38:55.069Z,3.60
2023-02-08T10:41:29.359Z,3.75
2023-02-08T10:44:03.875Z,4.63
2023-02-08T10:46:42.173Z,4.60
2023-02-08T10:49:47.586Z,4.80
2023-02-08T10:52:15.343Z,4.38
2023-02-08T10:54:42.999Z,4.45
2023-02-08T10:57:22.568Z,7.22
2023-02-08T10:59:56.356Z,5.38
2023-02-08T11:02:29.543Z,5.57
2023-02-08T11:05:15.692Z,4.63
2023-02-08T11:07:44.532Z,5.35
2023-02-08T11:10:25.061Z,4.68
2023-02-08T11:13:16.432Z,5.50
2023-02-08T11:15:48.809Z,4.60
2023-02-08T11:18:36.450Z,4.55
2023-02-08T11:21:12.991Z,4.65
2023-02-08T11:23:43.468Z,3.95
2023-02-08T11:26:19.701Z,3.80
2023-02-08T11:29:02.785Z,4.30
2023-02-08T11:34:05.851Z,4.75
2023-02-08T11:36:36.457Z,5.13
2023-02-08T11:39:18.660Z,4.45
2023-02-08T11:41:50.076Z,4.20
2023-02-08T11:44:29.501Z,4.97
2023-02-08T11:47:02.021Z,4.72
2023-02-08T11:49:44.952Z,4.00
2023-02-08T11:52:34.060Z,4.25
2023-02-08T11:55:21.021Z,4.28
2023-02-08T11:57:58.519Z,5.13
2023-02-08T12:00:51.200Z,4.95
2023-02-08T12:03:28.732Z,19.80
2023-02-08T12:06:21.959Z,22.17
2023-02-08T12:09:02.859Z,10.27
2023-02-08T12:11:44.410Z,5.57
2023-02-08T12:14:32.967Z,5.40
2023-02-08T12:17:28.783Z,5.88
2023-02-08T12:20:34.274Z,7.07
2023-02-08T12:23:17.254Z,7.72
2023-02-08T12:25:57.085Z,8.93
2023-02-08T12:28:40.772Z,9.05
2023-02-08T12:31:34.004Z,7.85
2023-02-08T12:34:29.280Z,7.25
2023-02-08T12:37:32.678Z,12.25
2023-02-08T12:40:19.104Z,8.95
2023-02-08T12:43:17.907Z,7.75
2023-02-08T12:45:59.020Z,7.35
2023-02-08T12:48:48.225Z,5.95
2023-02-08T12:51:27.050Z,7.28
2023-02-08T12:54:01.717Z,6.43
2023-02-08T12:56:36.881Z,6.15
2023-02-08T12:59:13.838Z,6.38
2023-02-08T13:01:46.231Z,5.82
2023-02-08T13:04:47.275Z,5.35
2023-02-08T13:07:22.671Z,5.82
2023-02-08T13:10:12.216Z,9.60
2023-02-08T13:12:44.871Z,6.55
2023-02-08T13:18:21.477Z,4.35
2023-02-08T13:20:58.088Z,3.95
2023-02-08T13:23:51.593Z,4.20
2023-02-08T13:26:27.253Z,3.00
2023-02-08T13:28:59.446Z,5.40
2023-02-08T13:31:34.460Z,5.10
2023-02-08T13:34:25.844Z,4.85
2023-02-08T13:37:01.094Z,4.05
2023-02-08T13:39:40.173Z,4.57
2023-02-08T13:42:19.536Z,4.13
2023-02-08T13:44:53.306Z,5.72
2023-02-08T13:47:49.101Z,5.45
2023-02-08T13:50:35.286Z,4.22
2023-02-08T13:53:06.897Z,10.48
2023-02-08T13:56:00.794Z,8.53
2023-02-08T13:58:40.913Z,4.45
2023-02-08T14:01:22.673Z,5.00
2023-02-08T14:04:10.682Z,4.15
2023-02-08T14:06:48.057Z,5.10
2023-02-08T14:09:16.009Z,6.15
2023-02-08T14:11:53.793Z,7.68
2023-02-08T14:14:29.917Z,7.88
2023-02-08T14:17:19.537Z,30.67
2023-02-08T14:19:58.517Z,18.67
2023-02-08T14:22:35.794Z,12.23
2023-02-08T14:25:18.506Z,14.63
2023-02-08T14:30:50.705Z,6.82
2023-02-08T14:33:28.464Z,4.55
2023-02-08T14:36:03.646Z,5.55
2023-02-08T14:38:48.588Z,4.85
2023-02-08T14:41:55.060Z,5.75
2023-02-08T14:44:46.825Z,4.95
2023-02-08T14:47:27.297Z,6.70
2023-02-08T14:50:18.210Z,6.15
2023-02-08T14:53:03.422Z,7.18
2023-02-08T14:55:37.591Z,8.02
2023-02-08T14:58:13.642Z,7.57
2023-02-08T15:00:43.493Z,9.40
2023-02-08T15:03:18.278Z,10.88
2023-02-08T15:06:12.180Z,9.27
2023-02-08T15:08:40.271Z,35.83
2023-02-08T15:11:25.641Z,24.50
2023-02-08T15:13:56.321Z,12.00
2023-02-08T15:16:34.657Z,7.05
2023-02-08T15:19:07.898Z,5.60
2023-02-08T15:21:37.785Z,3.17
2023-02-08T15:24:18.196Z,3.13
2023-02-08T15:26:48.543Z,3.70
2023-02-08T15:29:32.668Z,3.72
2023-02-08T15:32:03.562Z,7.80
2023-02-08T15:34:31.002Z,4.82
2023-02-08T15:36:58.595Z,5.38
2023-02-08T15:39:36.347Z,5.13
2023-02-08T15:42:03.663Z,5.43
2023-02-08T15:44:36.787Z,6.00
2023-02-08T15:47:06.512Z,3.92
2023-02-08T15:49:38.232Z,4.10
2023-02-08T15:52:06.857Z,4.47
2023-02-08T15:54:34.529Z,3.38
2023-02-08T15:57:09.887Z,3.63
2023-02-08T15:59:40.300Z,4.25
2023-02-08T16:02:35.083Z,5.65
2023-02-08T16:05:11.925Z,4.20
2023-02-08T16:07:45.118Z,7.63
2023-02-08T16:10:44.981Z,29.20
2023-02-08T16:13:48.040Z,34.17
2023-02-08T16:16:26.922Z,23.00
2023-02-08T16:19:21.770Z,16.75
2023-02-08T16:21:49.724Z,8.20
2023-02-08T16:24:16.760Z,7.03
2023-02-08T16:26:54.672Z,6.97
2023-02-08T16:29:39.809Z,5.55
2023-02-08T16:32:28.967Z,6.45
2023-02-08T16:34:56.672Z,7.97
2023-02-08T16:37:29.721Z,6.43
2023-02-08T16:40:05.279Z,6.82
2023-02-08T16:42:34.274Z,8.52
2023-02-08T16:45:03.867Z,8.05
2023-02-08T16:47:54.125Z,7.20
2023-02-08T16:50:27.284Z,6.55
2023-02-08T16:53:00.759Z,2.67
2023-02-08T16:55:32.005Z,3.97
2023-02-08T16:58:00.418Z,3.63
2023-02-08T17:00:32.809Z,3.00
2023-02-08T17:03:01.378Z,4.10
2023-02-08T17:05:36.518Z,3.55
2023-02-08T17:08:08.081Z,5.38
2023-02-08T17:10:35.594Z,5.87
2023-02-08T17:13:19.445Z,6.80
2023-02-08T17:15:50.505Z,8.45
2023-02-08T17:18:17.911Z,7.10
2023-02-08T17:20:45.743Z,9.50
2023-02-08T17:23:15.881Z,8.15
2023-02-08T17:25:44.165Z,9.90
2023-02-08T17:28:18.703Z,8.98
2023-02-08T17:30:47.382Z,11.75
2023-02-08T17:33:21.097Z,9.63
2023-02-08T17:35:51.037Z,7.72
2023-02-08T17:38:20.052Z,10.35
2023-02-08T17:40:48.373Z,7.57
2023-02-08T17:43:16.148Z,5.95
2023-02-08T17:45:44.806Z,8.13
2023-02-08T17:48:14.283Z,12.02
2023-02-08T17:50:48.556Z,7.47
2023-02-08T17:53:17.320Z,6.45
2023-02-08T17:55:45.758Z,5.20
2023-02-08T17:58:13.646Z,5.65
2023-02-08T18:00:41.574Z,5.10
2023-02-08T18:03:09.499Z,4.47
2023-02-08T18:05:37.805Z,5.57
2023-02-08T18:08:05.635Z,4.90
2023-02-08T18:10:33.215Z,4.63
2023-02-08T18:13:00.937Z,2.90
2023-02-08T18:15:28.621Z,2.63
2023-02-08T18:17:56.014Z,1.77
2023-02-08T18:20:23.751Z,2.22
2023-02-08T18:22:51.176Z,1.95
2023-02-08T18:25:19.297Z,0.93
2023-02-08T18:27:46.622Z,1.40
2023-02-08T18:30:15.066Z,1.77
2023-02-08T18:32:45.675Z,1.52
2023-02-08T18:35:12.953Z,2.17
2023-02-08T18:37:40.574Z,1.85
2023-02-08T18:40:09.169Z,1.88
2023-02-08T18:42:36.584Z,2.67
2023-02-08T18:45:05.772Z,1.77
2023-02-08T18:47:37.164Z,1.13
2023-02-08T18:50:06.146Z,2.03
2023-02-08T18:52:34.619Z,3.15
2023-02-08T18:55:02.708Z,2.17
2023-02-08T18:57:30.537Z,6.30
2023-02-08T18:59:58.042Z,1.73
2023-02-08T19:02:26.582Z,2.58
2023-02-08T19:04:54.507Z,4.07
2023-02-08T19:07:21.832Z,4.85
2023-02-08T19:09:49.871Z,2.42
2023-02-08T19:12:19.392Z,2.15
2023-02-08T19:14:50.604Z,2.90
2023-02-08T19:17:18.400Z,2.20
2023-02-08T19:19:46.974Z,2.75
2023-02-08T19:22:14.586Z,3.05
2023-02-08T19:24:44.990Z,3.40
2023-02-08T19:27:12.596Z,5.32
2023-02-08T19:29:39.824Z,3.67
2023-02-08T19:32:08.520Z,3.65
2023-02-08T19:34:36.017Z,4.30
2023-02-08T19:37:03.687Z,3.13
2023-02-08T19:39:31.597Z,3.53
2023-02-08T19:41:59.179Z,2.00
2023-02-08T19:44:29.859Z,3.35
2023-02-08T19:46:58.054Z,1.83
2023-02-08T19:49:29.039Z,2.15
2023-02-08T19:51:57.896Z,4.20
2023-02-08T19:54:26.043Z,2.58
2023-02-08T19:56:55.004Z,3.35
2023-02-08T19:59:25.946Z,3.67
2023-02-08T20:01:55.604Z,3.08
2023-02-08T20:04:27.826Z,3.58
2023-02-08T20:06:55.480Z,6.10
2023-02-08T20:09:25.361Z,7.82
2023-02-08T20:12:00.130Z,9.93
2023-02-08T20:14:31.679Z,4.30
2023-02-08T20:16:59.927Z,4.10
2023-02-08T20:19:28.646Z,3.67
2023-02-08T20:21:56.692Z,4.70
2023-02-08T20:24:23.977Z,3.72
2023-02-08T20:26:51.378Z,3.78
2023-02-08T20:29:20.225Z,2.30
2023-02-08T20:31:49.677Z,2.65
2023-02-08T20:34:19.033Z,4.53
2023-02-08T20:37:08.254Z,5.18
2023-02-08T20:39:37.302Z,2.90
2023-02-08T20:42:05.240Z,3.58
2023-02-08T20:44:33.641Z,3.55
2023-02-08T20:47:01.529Z,3.35
2023-02-08T20:49:30.085Z,4.40
2023-02-08T20:51:57.717Z,5.07
2023-02-08T20:54:25.427Z,5.93
2023-02-08T20:56:54.228Z,6.70
2023-02-08T20:59:22.449Z,3.25
2023-02-08T21:01:51.842Z,4.40
2023-02-08T21:04:24.305Z,4.60
2023-02-08T21:09:20.696Z,4.20
2023-02-08T21:11:48.351Z,1.77
2023-02-08T21:14:20.872Z,4.45
2023-02-08T21:16:52.465Z,4.00
2023-02-08T21:19:21.050Z,3.80
2023-02-08T21:22:03.056Z,6.78
2023-02-08T21:24:31.163Z,4.43
2023-02-08T21:26:58.482Z,6.77
2023-02-08T21:29:25.812Z,2.20
2023-02-08T21:31:54.777Z,3.25
2023-02-08T21:34:22.279Z,2.97
2023-02-08T21:36:49.966Z,4.00
2023-02-08T21:39:17.475Z,3.60
2023-02-08T21:41:45.446Z,4.57
2023-02-08T21:44:12.933Z,2.97
2023-02-08T21:46:40.164Z,3.92
2023-02-08T21:49:26.208Z,4.50
2023-02-08T21:52:12.297Z,6.27
2023-02-08T21:54:42.744Z,2.95
2023-02-08T21:57:19.318Z,3.67
2023-02-08T21:59:48.795Z,2.92
2023-02-08T22:02:28.089Z,4.47
2023-02-08T22:05:16.434Z,3.35
2023-02-08T22:07:54.277Z,5.00
2023-02-08T22:10:24.672Z,2.83
2023-02-08T22:12:56.007Z,2.33
2023-02-08T22:15:25.730Z,3.97
2023-02-08T22:17:58.962Z,5.90
2023-02-08T22:20:26.373Z,4.38
2023-02-08T22:22:56.938Z,2.08
2023-02-08T22:25:24.465Z,3.13
2023-02-08T22:27:52.725Z,3.35
2023-02-08T22:30:22.833Z,3.80
2023-02-08T22:32:52.109Z,3.30
2023-02-08T22:35:19.628Z,2.78
2023-02-08T22:37:47.262Z,2.70
2023-02-08T22:40:14.409Z,3.22
2023-02-08T22:42:42.735Z,3.93
2023-02-08T22:45:10.831Z,3.95
2023-02-08T22:47:38.574Z,3.80
2023-02-08T22:50:07.783Z,4.43
2023-02-08T22:52:35.430Z,3.72
2023-02-08T22:55:04.305Z,5.07
2023-02-08T22:57:33.235Z,4.35
2023-02-08T23:00:00.849Z,2.45
2023-02-08T23:02:28.361Z,2.22
2023-02-08T23:04:55.992Z,3.40
2023-02-08T23:07:23.541Z,4.95
2023-02-08T23:09:50.574Z,3.65
2023-02-08T23:12:19.205Z,4.55
2023-02-08T23:14:48.745Z,3.23
2023-02-08T23:17:16.579Z,5.38
2023-02-08T23:19:44.071Z,2.50
2023-02-08T23:22:11.561Z,2.60
2023-02-08T23:24:39.180Z,2.50
2023-02-08T23:27:06.293Z,3.22
2023-02-08T23:29:35.405Z,4.78
2023-02-08T23:32:03.758Z,1.80
2023-02-08T23:34:31.193Z,2.75
2023-02-08T23:36:58.615Z,1.55
2023-02-08T23:39:25.814Z,3.65
2023-02-08T23:41:56.523Z,2.20
2023-02-08T23:44:25.441Z,6.07
2023-02-08T23:46:53.744Z,2.83
2023-02-08T23:49:21.078Z,3.35
2023-02-08T23:51:48.332Z,5.53
2023-02-08T23:54:15.502Z,3.00
2023-02-08T23:56:44.453Z,3.63
2023-02-08T23:59:12.184Z,2.80
